sensor_id;sensor_type;location;lat;lon;timestamp;P1;durP1;ratioP1;P2;durP2;ratioP2
55210;SDS011;41082;52.822;6.666;2023-08-06T00:02:18;9.25;;;6.28;;
55210;SDS011;41082;52.822;6.666;2023-08-06T00:04:43;7.90;;;6.45;;
55210;SDS011;41082;52.822;6.666;2023-08-06T00:07:09;6.90;;;6.00;;
55210;SDS011;41082;52.822;6.666;2023-08-06T00:09:34;6.70;;;5.72;;
55210;SDS011;41082;52.822;6.666;2023-08-06T00:12:00;7.43;;;5.88;;
55210;SDS011;41082;52.822;6.666;2023-08-06T00:14:26;9.23;;;6.00;;
55210;SDS011;41082;52.822;6.666;2023-08-06T00:16:51;6.65;;;5.63;;
55210;SDS011;41082;52.822;6.666;2023-08-06T00:19:17;6.47;;;5.88;;
55210;SDS011;41082;52.822;6.666;2023-08-06T00:21:42;7.18;;;5.50;;
55210;SDS011;41082;52.822;6.666;2023-08-06T00:24:08;8.00;;;5.93;;
55210;SDS011;41082;52.822;6.666;2023-08-06T00:26:33;6.07;;;5.53;;
55210;SDS011;41082;52.822;6.666;2023-08-06T00:28:59;7.40;;;5.25;;
55210;SDS011;41082;52.822;6.666;2023-08-06T00:31:24;6.80;;;5.53;;
55210;SDS011;41082;52.822;6.666;2023-08-06T00:33:50;6.65;;;5.30;;
55210;SDS011;41082;52.822;6.666;2023-08-06T00:36:16;5.40;;;4.90;;
55210;SDS011;41082;52.822;6.666;2023-08-06T00:38:41;7.05;;;5.10;;
55210;SDS011;41082;52.822;6.666;2023-08-06T00:41:07;5.80;;;5.30;;
55210;SDS011;41082;52.822;6.666;2023-08-06T00:43:32;6.88;;;4.95;;
55210;SDS011;41082;52.822;6.666;2023-08-06T00:45:58;8.60;;;5.88;;
55210;SDS011;41082;52.822;6.666;2023-08-06T00:48:24;5.30;;;4.80;;
55210;SDS011;41082;52.822;6.666;2023-08-06T00:50:50;7.68;;;4.45;;
55210;SDS011;41082;52.822;6.666;2023-08-06T00:53:16;9.70;;;4.75;;
55210;SDS011;41082;52.822;6.666;2023-08-06T00:55:43;6.28;;;4.50;;
55210;SDS011;41082;52.822;6.666;2023-08-06T00:58:10;5.65;;;4.93;;
55210;SDS011;41082;52.822;6.666;2023-08-06T01:00:37;7.30;;;5.20;;
55210;SDS011;41082;52.822;6.666;2023-08-06T01:03:03;5.45;;;4.93;;
55210;SDS011;41082;52.822;6.666;2023-08-06T01:05:28;6.03;;;4.82;;
55210;SDS011;41082;52.822;6.666;2023-08-06T01:13:24;6.25;;;4.28;;
55210;SDS011;41082;52.822;6.666;2023-08-06T01:16:15;5.18;;;4.63;;
55210;SDS011;41082;52.822;6.666;2023-08-06T01:18:42;6.57;;;5.10;;
55210;SDS011;41082;52.822;6.666;2023-08-06T01:21:12;5.20;;;4.43;;
55210;SDS011;41082;52.822;6.666;2023-08-06T01:23:38;6.65;;;4.60;;
55210;SDS011;41082;52.822;6.666;2023-08-06T01:26:15;6.88;;;3.97;;
55210;SDS011;41082;52.822;6.666;2023-08-06T01:28:56;6.23;;;4.60;;
55210;SDS011;41082;52.822;6.666;2023-08-06T01:31:30;5.90;;;4.72;;
55210;SDS011;41082;52.822;6.666;2023-08-06T01:33:57;6.10;;;4.45;;
55210;SDS011;41082;52.822;6.666;2023-08-06T01:36:24;6.38;;;4.57;;
55210;SDS011;41082;52.822;6.666;2023-08-06T01:38:52;4.97;;;4.22;;
55210;SDS011;41082;52.822;6.666;2023-08-06T01:41:18;4.68;;;4.25;;
55210;SDS011;41082;52.822;6.666;2023-08-06T01:43:44;7.65;;;4.75;;
55210;SDS011;41082;52.822;6.666;2023-08-06T01:46:09;4.88;;;4.40;;
55210;SDS011;41082;52.822;6.666;2023-08-06T01:48:35;5.30;;;4.18;;
55210;SDS011;41082;52.822;6.666;2023-08-06T01:51:03;6.97;;;5.05;;
55210;SDS011;41082;52.822;6.666;2023-08-06T01:53:30;5.63;;;4.80;;
55210;SDS011;41082;52.822;6.666;2023-08-06T01:55:56;7.78;;;5.30;;
55210;SDS011;41082;52.822;6.666;2023-08-06T01:58:22;4.80;;;4.40;;
55210;SDS011;41082;52.822;6.666;2023-08-06T02:00:48;7.00;;;4.70;;
55210;SDS011;41082;52.822;6.666;2023-08-06T02:03:13;7.63;;;4.53;;
55210;SDS011;41082;52.822;6.666;2023-08-06T02:05:39;7.25;;;5.10;;
55210;SDS011;41082;52.822;6.666;2023-08-06T02:08:05;5.40;;;4.85;;
55210;SDS011;41082;52.822;6.666;2023-08-06T02:10:31;7.95;;;5.13;;
55210;SDS011;41082;52.822;6.666;2023-08-06T02:12:56;7.10;;;5.47;;
55210;SDS011;41082;52.822;6.666;2023-08-06T02:15:22;5.93;;;4.97;;
55210;SDS011;41082;52.822;6.666;2023-08-06T02:17:48;5.32;;;4.82;;
55210;SDS011;41082;52.822;6.666;2023-08-06T02:20:13;7.55;;;5.00;;
55210;SDS011;41082;52.822;6.666;2023-08-06T02:22:39;7.22;;;5.28;;
55210;SDS011;41082;52.822;6.666;2023-08-06T02:25:05;7.32;;;4.95;;
55210;SDS011;41082;52.822;6.666;2023-08-06T02:27:30;9.05;;;5.30;;
55210;SDS011;41082;52.822;6.666;2023-08-06T02:29:56;8.82;;;5.45;;
55210;SDS011;41082;52.822;6.666;2023-08-06T02:32:21;6.82;;;5.40;;
55210;SDS011;41082;52.822;6.666;2023-08-06T02:34:47;6.97;;;5.47;;
55210;SDS011;41082;52.822;6.666;2023-08-06T02:37:13;5.95;;;5.30;;
55210;SDS011;41082;52.822;6.666;2023-08-06T02:39:38;6.75;;;5.90;;
55210;SDS011;41082;52.822;6.666;2023-08-06T02:42:06;7.57;;;5.93;;
55210;SDS011;41082;52.822;6.666;2023-08-06T02:44:32;7.68;;;5.60;;
55210;SDS011;41082;52.822;6.666;2023-08-06T02:46:58;6.25;;;4.78;;
55210;SDS011;41082;52.822;6.666;2023-08-06T02:49:24;7.82;;;5.90;;
55210;SDS011;41082;52.822;6.666;2023-08-06T02:51:50;7.40;;;5.40;;
55210;SDS011;41082;52.822;6.666;2023-08-06T02:54:16;6.03;;;5.05;;
55210;SDS011;41082;52.822;6.666;2023-08-06T02:56:43;5.93;;;5.32;;
55210;SDS011;41082;52.822;6.666;2023-08-06T02:59:10;7.50;;;5.63;;
55210;SDS011;41082;52.822;6.666;2023-08-06T03:01:35;7.47;;;5.97;;
55210;SDS011;41082;52.822;6.666;2023-08-06T03:04:01;7.68;;;5.60;;
55210;SDS011;41082;52.822;6.666;2023-08-06T03:06:27;7.72;;;5.70;;
55210;SDS011;41082;52.822;6.666;2023-08-06T03:08:53;6.60;;;5.85;;
55210;SDS011;41082;52.822;6.666;2023-08-06T03:11:18;6.57;;;5.13;;
55210;SDS011;41082;52.822;6.666;2023-08-06T03:13:44;7.28;;;5.03;;
55210;SDS011;41082;52.822;6.666;2023-08-06T03:16:09;8.63;;;4.88;;
55210;SDS011;41082;52.822;6.666;2023-08-06T03:18:35;6.65;;;5.90;;
55210;SDS011;41082;52.822;6.666;2023-08-06T03:21:00;6.65;;;5.15;;
55210;SDS011;41082;52.822;6.666;2023-08-06T03:23:26;6.50;;;5.28;;
55210;SDS011;41082;52.822;6.666;2023-08-06T03:25:52;5.95;;;5.18;;
55210;SDS011;41082;52.822;6.666;2023-08-06T03:28:17;5.32;;;4.47;;
55210;SDS011;41082;52.822;6.666;2023-08-06T03:30:43;5.78;;;4.78;;
55210;SDS011;41082;52.822;6.666;2023-08-06T03:33:08;5.10;;;4.60;;
55210;SDS011;41082;52.822;6.666;2023-08-06T03:35:34;5.15;;;4.63;;
55210;SDS011;41082;52.822;6.666;2023-08-06T03:37:59;6.18;;;4.88;;
55210;SDS011;41082;52.822;6.666;2023-08-06T03:40:25;7.68;;;5.25;;
55210;SDS011;41082;52.822;6.666;2023-08-06T03:42:50;6.88;;;5.30;;
55210;SDS011;41082;52.822;6.666;2023-08-06T03:45:16;5.28;;;4.78;;
55210;SDS011;41082;52.822;6.666;2023-08-06T03:47:42;6.75;;;5.03;;
55210;SDS011;41082;52.822;6.666;2023-08-06T03:50:07;6.38;;;5.75;;
55210;SDS011;41082;52.822;6.666;2023-08-06T03:52:33;6.75;;;5.57;;
55210;SDS011;41082;52.822;6.666;2023-08-06T03:54:59;6.15;;;5.65;;
55210;SDS011;41082;52.822;6.666;2023-08-06T03:57:24;5.60;;;5.00;;
55210;SDS011;41082;52.822;6.666;2023-08-06T03:59:50;6.03;;;5.47;;
55210;SDS011;41082;52.822;6.666;2023-08-06T04:02:15;6.13;;;5.53;;
55210;SDS011;41082;52.822;6.666;2023-08-06T04:04:41;8.65;;;5.78;;
55210;SDS011;41082;52.822;6.666;2023-08-06T04:07:07;5.53;;;5.03;;
55210;SDS011;41082;52.822;6.666;2023-08-06T04:09:32;5.85;;;5.35;;
55210;SDS011;41082;52.822;6.666;2023-08-06T04:11:58;5.85;;;5.28;;
55210;SDS011;41082;52.822;6.666;2023-08-06T04:14:28;6.28;;;5.57;;
55210;SDS011;41082;52.822;6.666;2023-08-06T04:16:54;7.85;;;5.80;;
55210;SDS011;41082;52.822;6.666;2023-08-06T04:19:19;7.85;;;6.57;;
55210;SDS011;41082;52.822;6.666;2023-08-06T04:21:45;6.85;;;5.75;;
55210;SDS011;41082;52.822;6.666;2023-08-06T04:24:10;5.88;;;5.38;;
55210;SDS011;41082;52.822;6.666;2023-08-06T04:26:36;8.18;;;6.53;;
55210;SDS011;41082;52.822;6.666;2023-08-06T04:29:02;6.40;;;5.80;;
55210;SDS011;41082;52.822;6.666;2023-08-06T04:31:28;7.68;;;6.80;;
55210;SDS011;41082;52.822;6.666;2023-08-06T04:33:54;7.88;;;7.10;;
55210;SDS011;41082;52.822;6.666;2023-08-06T04:36:19;7.35;;;6.53;;
55210;SDS011;41082;52.822;6.666;2023-08-06T04:38:45;7.78;;;6.38;;
55210;SDS011;41082;52.822;6.666;2023-08-06T04:41:12;9.77;;;7.43;;
55210;SDS011;41082;52.822;6.666;2023-08-06T04:43:38;9.07;;;7.20;;
55210;SDS011;41082;52.822;6.666;2023-08-06T04:46:03;8.52;;;7.55;;
55210;SDS011;41082;52.822;6.666;2023-08-06T04:48:30;9.32;;;7.93;;
55210;SDS011;41082;52.822;6.666;2023-08-06T04:50:55;9.95;;;8.07;;
55210;SDS011;41082;52.822;6.666;2023-08-06T04:53:21;9.65;;;7.30;;
55210;SDS011;41082;52.822;6.666;2023-08-06T04:55:47;10.88;;;8.15;;
55210;SDS011;41082;52.822;6.666;2023-08-06T04:58:12;8.77;;;7.88;;
55210;SDS011;41082;52.822;6.666;2023-08-06T05:00:38;9.93;;;8.95;;
55210;SDS011;41082;52.822;6.666;2023-08-06T05:03:06;8.98;;;8.18;;
55210;SDS011;41082;52.822;6.666;2023-08-06T05:05:32;8.50;;;7.70;;
55210;SDS011;41082;52.822;6.666;2023-08-06T05:07:58;9.50;;;7.68;;
55210;SDS011;41082;52.822;6.666;2023-08-06T05:10:26;9.77;;;8.70;;
55210;SDS011;41082;52.822;6.666;2023-08-06T05:12:52;9.90;;;9.00;;
55210;SDS011;41082;52.822;6.666;2023-08-06T05:15:18;9.63;;;8.40;;
55210;SDS011;41082;52.822;6.666;2023-08-06T05:17:44;9.85;;;8.98;;
55210;SDS011;41082;52.822;6.666;2023-08-06T05:20:10;9.43;;;8.43;;
55210;SDS011;41082;52.822;6.666;2023-08-06T05:22:36;10.07;;;9.07;;
55210;SDS011;41082;52.822;6.666;2023-08-06T05:25:02;10.45;;;8.52;;
55210;SDS011;41082;52.822;6.666;2023-08-06T05:27:27;9.70;;;8.70;;
55210;SDS011;41082;52.822;6.666;2023-08-06T05:29:54;9.07;;;8.23;;
55210;SDS011;41082;52.822;6.666;2023-08-06T05:32:21;9.35;;;8.48;;
55210;SDS011;41082;52.822;6.666;2023-08-06T05:34:47;10.02;;;9.15;;
55210;SDS011;41082;52.822;6.666;2023-08-06T05:37:13;9.65;;;8.65;;
55210;SDS011;41082;52.822;6.666;2023-08-06T05:39:38;9.07;;;8.27;;
55210;SDS011;41082;52.822;6.666;2023-08-06T05:42:04;10.05;;;8.35;;
55210;SDS011;41082;52.822;6.666;2023-08-06T05:44:30;9.10;;;8.30;;
55210;SDS011;41082;52.822;6.666;2023-08-06T05:46:56;10.15;;;9.23;;
55210;SDS011;41082;52.822;6.666;2023-08-06T05:49:21;10.52;;;9.63;;
55210;SDS011;41082;52.822;6.666;2023-08-06T05:51:47;11.23;;;9.75;;
55210;SDS011;41082;52.822;6.666;2023-08-06T05:54:13;10.65;;;9.70;;
55210;SDS011;41082;52.822;6.666;2023-08-06T05:56:39;10.85;;;9.85;;
55210;SDS011;41082;52.822;6.666;2023-08-06T05:59:05;11.55;;;10.35;;
55210;SDS011;41082;52.822;6.666;2023-08-06T06:01:30;10.80;;;9.73;;
55210;SDS011;41082;52.822;6.666;2023-08-06T06:03:56;11.32;;;10.25;;
55210;SDS011;41082;52.822;6.666;2023-08-06T06:06:21;12.50;;;10.90;;
55210;SDS011;41082;52.822;6.666;2023-08-06T06:08:47;11.95;;;10.80;;
55210;SDS011;41082;52.822;6.666;2023-08-06T06:11:13;12.10;;;11.00;;
55210;SDS011;41082;52.822;6.666;2023-08-06T06:13:38;13.45;;;11.18;;
55210;SDS011;41082;52.822;6.666;2023-08-06T06:16:04;12.40;;;11.30;;
55210;SDS011;41082;52.822;6.666;2023-08-06T06:18:30;12.35;;;11.25;;
55210;SDS011;41082;52.822;6.666;2023-08-06T06:20:56;11.40;;;10.23;;
55210;SDS011;41082;52.822;6.666;2023-08-06T06:23:21;11.98;;;10.88;;
55210;SDS011;41082;52.822;6.666;2023-08-06T06:25:50;10.90;;;9.90;;
55210;SDS011;41082;52.822;6.666;2023-08-06T06:28:19;11.70;;;10.55;;
55210;SDS011;41082;52.822;6.666;2023-08-06T06:30:44;11.98;;;10.75;;
55210;SDS011;41082;52.822;6.666;2023-08-06T06:33:10;11.38;;;10.18;;
55210;SDS011;41082;52.822;6.666;2023-08-06T06:35:36;10.63;;;9.73;;
55210;SDS011;41082;52.822;6.666;2023-08-06T06:38:02;10.98;;;10.02;;
55210;SDS011;41082;52.822;6.666;2023-08-06T06:40:28;11.82;;;10.80;;
55210;SDS011;41082;52.822;6.666;2023-08-06T06:42:53;11.35;;;10.25;;
55210;SDS011;41082;52.822;6.666;2023-08-06T06:45:19;11.43;;;10.40;;
55210;SDS011;41082;52.822;6.666;2023-08-06T06:47:44;10.60;;;9.65;;
55210;SDS011;41082;52.822;6.666;2023-08-06T06:50:10;11.93;;;10.63;;
55210;SDS011;41082;52.822;6.666;2023-08-06T06:52:36;11.38;;;10.40;;
55210;SDS011;41082;52.822;6.666;2023-08-06T06:55:02;10.48;;;9.57;;
55210;SDS011;41082;52.822;6.666;2023-08-06T06:57:28;9.98;;;9.07;;
55210;SDS011;41082;52.822;6.666;2023-08-06T06:59:53;10.50;;;9.40;;
55210;SDS011;41082;52.822;6.666;2023-08-06T07:02:19;10.50;;;9.60;;
55210;SDS011;41082;52.822;6.666;2023-08-06T07:04:45;10.40;;;8.50;;
55210;SDS011;41082;52.822;6.666;2023-08-06T07:07:10;11.45;;;9.40;;
55210;SDS011;41082;52.822;6.666;2023-08-06T07:09:36;13.18;;;9.38;;
55210;SDS011;41082;52.822;6.666;2023-08-06T07:12:01;9.75;;;8.57;;
55210;SDS011;41082;52.822;6.666;2023-08-06T07:14:28;8.23;;;7.45;;
55210;SDS011;41082;52.822;6.666;2023-08-06T07:16:53;8.55;;;7.85;;
55210;SDS011;41082;52.822;6.666;2023-08-06T07:19:19;9.88;;;7.80;;
55210;SDS011;41082;52.822;6.666;2023-08-06T07:21:45;10.52;;;8.32;;
55210;SDS011;41082;52.822;6.666;2023-08-06T07:24:11;8.85;;;7.55;;
55210;SDS011;41082;52.822;6.666;2023-08-06T07:26:37;8.55;;;7.55;;
55210;SDS011;41082;52.822;6.666;2023-08-06T07:29:02;8.20;;;7.45;;
55210;SDS011;41082;52.822;6.666;2023-08-06T07:31:28;10.40;;;8.00;;
55210;SDS011;41082;52.822;6.666;2023-08-06T07:33:54;8.43;;;7.50;;
55210;SDS011;41082;52.822;6.666;2023-08-06T07:36:20;8.45;;;7.68;;
55210;SDS011;41082;52.822;6.666;2023-08-06T07:38:45;10.80;;;7.20;;
55210;SDS011;41082;52.822;6.666;2023-08-06T07:41:11;8.05;;;7.35;;
55210;SDS011;41082;52.822;6.666;2023-08-06T07:43:37;7.68;;;6.80;;
55210;SDS011;41082;52.822;6.666;2023-08-06T07:46:02;7.35;;;6.68;;
55210;SDS011;41082;52.822;6.666;2023-08-06T07:48:28;7.63;;;6.88;;
55210;SDS011;41082;52.822;6.666;2023-08-06T07:50:54;8.98;;;7.05;;
55210;SDS011;41082;52.822;6.666;2023-08-06T07:53:23;7.65;;;7.05;;
55210;SDS011;41082;52.822;6.666;2023-08-06T07:55:52;7.05;;;6.45;;
55210;SDS011;41082;52.822;6.666;2023-08-06T07:58:19;7.13;;;6.43;;
55210;SDS011;41082;52.822;6.666;2023-08-06T08:00:45;7.55;;;6.85;;
55210;SDS011;41082;52.822;6.666;2023-08-06T08:03:13;9.38;;;6.93;;
55210;SDS011;41082;52.822;6.666;2023-08-06T08:05:40;7.60;;;6.90;;
55210;SDS011;41082;52.822;6.666;2023-08-06T08:08:06;7.30;;;6.32;;
55210;SDS011;41082;52.822;6.666;2023-08-06T08:10:32;6.72;;;6.13;;
55210;SDS011;41082;52.822;6.666;2023-08-06T08:12:58;6.78;;;6.18;;
55210;SDS011;41082;52.822;6.666;2023-08-06T08:15:24;8.32;;;6.55;;
55210;SDS011;41082;52.822;6.666;2023-08-06T08:17:51;7.57;;;6.88;;
55210;SDS011;41082;52.822;6.666;2023-08-06T08:20:17;7.90;;;6.78;;
55210;SDS011;41082;52.822;6.666;2023-08-06T08:22:43;7.40;;;6.60;;
55210;SDS011;41082;52.822;6.666;2023-08-06T08:25:09;8.38;;;6.85;;
55210;SDS011;41082;52.822;6.666;2023-08-06T08:27:35;6.93;;;6.28;;
55210;SDS011;41082;52.822;6.666;2023-08-06T08:30:00;7.43;;;6.25;;
55210;SDS011;41082;52.822;6.666;2023-08-06T08:32:26;6.97;;;6.00;;
55210;SDS011;41082;52.822;6.666;2023-08-06T08:34:52;7.63;;;6.28;;
55210;SDS011;41082;52.822;6.666;2023-08-06T08:37:18;7.60;;;6.88;;
55210;SDS011;41082;52.822;6.666;2023-08-06T08:39:45;7.65;;;6.53;;
55210;SDS011;41082;52.822;6.666;2023-08-06T08:42:11;6.78;;;6.28;;
55210;SDS011;41082;52.822;6.666;2023-08-06T08:44:36;7.38;;;6.07;;
55210;SDS011;41082;52.822;6.666;2023-08-06T08:47:05;5.70;;;4.88;;
55210;SDS011;41082;52.822;6.666;2023-08-06T08:49:31;5.78;;;5.05;;
55210;SDS011;41082;52.822;6.666;2023-08-06T08:51:57;5.55;;;5.13;;
55210;SDS011;41082;52.822;6.666;2023-08-06T08:54:26;6.07;;;5.57;;
55210;SDS011;41082;52.822;6.666;2023-08-06T08:56:53;5.30;;;4.80;;
55210;SDS011;41082;52.822;6.666;2023-08-06T08:59:20;5.65;;;5.15;;
55210;SDS011;41082;52.822;6.666;2023-08-06T09:01:45;5.28;;;4.88;;
55210;SDS011;41082;52.822;6.666;2023-08-06T09:04:15;5.22;;;4.82;;
55210;SDS011;41082;52.822;6.666;2023-08-06T09:06:41;5.25;;;4.80;;
55210;SDS011;41082;52.822;6.666;2023-08-06T09:09:13;6.30;;;5.78;;
55210;SDS011;41082;52.822;6.666;2023-08-06T09:11:46;5.93;;;5.43;;
55210;SDS011;41082;52.822;6.666;2023-08-06T09:14:14;5.55;;;5.07;;
55210;SDS011;41082;52.822;6.666;2023-08-06T09:16:40;6.22;;;5.63;;
55210;SDS011;41082;52.822;6.666;2023-08-06T09:19:12;6.03;;;5.53;;
55210;SDS011;41082;52.822;6.666;2023-08-06T09:21:40;8.90;;;6.03;;
55210;SDS011;41082;52.822;6.666;2023-08-06T09:24:07;7.05;;;5.15;;
55210;SDS011;41082;52.822;6.666;2023-08-06T09:26:34;5.18;;;4.60;;
55210;SDS011;41082;52.822;6.666;2023-08-06T09:29:01;4.90;;;4.50;;
55210;SDS011;41082;52.822;6.666;2023-08-06T09:31:42;5.35;;;4.85;;
55210;SDS011;41082;52.822;6.666;2023-08-06T09:34:19;5.22;;;4.68;;
55210;SDS011;41082;52.822;6.666;2023-08-06T09:36:49;5.43;;;5.00;;
55210;SDS011;41082;52.822;6.666;2023-08-06T09:39:20;4.55;;;4.05;;
55210;SDS011;41082;52.822;6.666;2023-08-06T09:41:47;4.50;;;4.20;;
55210;SDS011;41082;52.822;6.666;2023-08-06T09:44:16;8.15;;;4.32;;
55210;SDS011;41082;52.822;6.666;2023-08-06T09:46:49;4.80;;;4.40;;
55210;SDS011;41082;52.822;6.666;2023-08-06T09:49:19;5.78;;;4.03;;
55210;SDS011;41082;52.822;6.666;2023-08-06T09:51:51;3.83;;;3.42;;
55210;SDS011;41082;52.822;6.666;2023-08-06T09:54:20;3.45;;;3.15;;
55210;SDS011;41082;52.822;6.666;2023-08-06T09:56:49;4.25;;;3.40;;
55210;SDS011;41082;52.822;6.666;2023-08-06T09:59:15;5.35;;;3.83;;
55210;SDS011;41082;52.822;6.666;2023-08-06T10:01:42;4.88;;;3.47;;
55210;SDS011;41082;52.822;6.666;2023-08-06T10:04:09;5.80;;;4.07;;
55210;SDS011;41082;52.822;6.666;2023-08-06T10:06:37;4.00;;;3.50;;
55210;SDS011;41082;52.822;6.666;2023-08-06T10:09:06;3.92;;;3.25;;
55210;SDS011;41082;52.822;6.666;2023-08-06T10:11:33;4.00;;;2.88;;
55210;SDS011;41082;52.822;6.666;2023-08-06T10:14:16;3.75;;;3.40;;
55210;SDS011;41082;52.822;6.666;2023-08-06T10:16:46;3.72;;;3.42;;
55210;SDS011;41082;52.822;6.666;2023-08-06T10:19:13;3.60;;;3.25;;
55210;SDS011;41082;52.822;6.666;2023-08-06T10:21:41;4.18;;;3.30;;
55210;SDS011;41082;52.822;6.666;2023-08-06T10:24:07;3.17;;;2.78;;
55210;SDS011;41082;52.822;6.666;2023-08-06T10:26:35;3.40;;;3.10;;
55210;SDS011;41082;52.822;6.666;2023-08-06T10:29:01;3.03;;;2.83;;
55210;SDS011;41082;52.822;6.666;2023-08-06T10:31:53;2.67;;;2.35;;
55210;SDS011;41082;52.822;6.666;2023-08-06T10:34:22;2.50;;;2.30;;
55210;SDS011;41082;52.822;6.666;2023-08-06T10:36:48;3.67;;;2.55;;
55210;SDS011;41082;52.822;6.666;2023-08-06T10:39:14;3.85;;;1.92;;
55210;SDS011;41082;52.822;6.666;2023-08-06T10:41:42;2.65;;;1.73;;
55210;SDS011;41082;52.822;6.666;2023-08-06T10:44:09;1.90;;;1.50;;
55210;SDS011;41082;52.822;6.666;2023-08-06T10:46:36;3.00;;;1.80;;
55210;SDS011;41082;52.822;6.666;2023-08-06T10:49:05;2.75;;;2.33;;
55210;SDS011;41082;52.822;6.666;2023-08-06T10:51:32;3.63;;;2.15;;
55210;SDS011;41082;52.822;6.666;2023-08-06T10:53:58;1.98;;;1.70;;
55210;SDS011;41082;52.822;6.666;2023-08-06T10:56:24;4.18;;;1.85;;
55210;SDS011;41082;52.822;6.666;2023-08-06T10:58:54;2.50;;;1.80;;
55210;SDS011;41082;52.822;6.666;2023-08-06T11:01:21;2.40;;;1.48;;
55210;SDS011;41082;52.822;6.666;2023-08-06T11:03:48;3.10;;;1.73;;
55210;SDS011;41082;52.822;6.666;2023-08-06T11:06:21;4.03;;;1.58;;
55210;SDS011;41082;52.822;6.666;2023-08-06T11:08:49;2.97;;;1.40;;
55210;SDS011;41082;52.822;6.666;2023-08-06T11:11:17;2.80;;;1.50;;
55210;SDS011;41082;52.822;6.666;2023-08-06T11:13:43;1.63;;;1.40;;
55210;SDS011;41082;52.822;6.666;2023-08-06T11:16:16;2.75;;;1.27;;
55210;SDS011;41082;52.822;6.666;2023-08-06T11:18:43;3.40;;;1.17;;
55210;SDS011;41082;52.822;6.666;2023-08-06T11:21:09;2.55;;;1.38;;
55210;SDS011;41082;52.822;6.666;2023-08-06T11:23:36;1.83;;;1.00;;
55210;SDS011;41082;52.822;6.666;2023-08-06T11:26:02;4.28;;;1.30;;
55210;SDS011;41082;52.822;6.666;2023-08-06T11:28:28;1.80;;;0.98;;
55210;SDS011;41082;52.822;6.666;2023-08-06T11:30:54;2.58;;;1.20;;
55210;SDS011;41082;52.822;6.666;2023-08-06T11:33:24;1.67;;;1.33;;
55210;SDS011;41082;52.822;6.666;2023-08-06T11:35:51;1.60;;;0.90;;
55210;SDS011;41082;52.822;6.666;2023-08-06T11:38:19;2.75;;;1.30;;
55210;SDS011;41082;52.822;6.666;2023-08-06T11:40:45;1.85;;;1.15;;
55210;SDS011;41082;52.822;6.666;2023-08-06T11:43:12;1.73;;;1.33;;
55210;SDS011;41082;52.822;6.666;2023-08-06T11:45:38;3.17;;;1.13;;
55210;SDS011;41082;52.822;6.666;2023-08-06T11:48:04;2.45;;;0.77;;
55210;SDS011;41082;52.822;6.666;2023-08-06T11:50:30;1.67;;;1.05;;
55210;SDS011;41082;52.822;6.666;2023-08-06T11:52:56;2.83;;;0.93;;
55210;SDS011;41082;52.822;6.666;2023-08-06T11:55:23;5.60;;;1.65;;
55210;SDS011;41082;52.822;6.666;2023-08-06T11:57:50;4.60;;;1.55;;
55210;SDS011;41082;52.822;6.666;2023-08-06T12:00:16;2.88;;;1.45;;
55210;SDS011;41082;52.822;6.666;2023-08-06T12:02:43;2.58;;;1.60;;
55210;SDS011;41082;52.822;6.666;2023-08-06T12:05:14;5.57;;;1.63;;
55210;SDS011;41082;52.822;6.666;2023-08-06T12:07:47;4.60;;;1.92;;
55210;SDS011;41082;52.822;6.666;2023-08-06T12:10:14;6.22;;;1.95;;
55210;SDS011;41082;52.822;6.666;2023-08-06T12:12:40;5.30;;;2.17;;
55210;SDS011;41082;52.822;6.666;2023-08-06T12:15:07;5.30;;;2.45;;
55210;SDS011;41082;52.822;6.666;2023-08-06T12:17:33;5.60;;;2.35;;
55210;SDS011;41082;52.822;6.666;2023-08-06T12:19:59;4.32;;;1.42;;
55210;SDS011;41082;52.822;6.666;2023-08-06T12:22:25;4.80;;;1.80;;
55210;SDS011;41082;52.822;6.666;2023-08-06T12:24:51;2.15;;;1.42;;
55210;SDS011;41082;52.822;6.666;2023-08-06T12:27:17;2.28;;;1.50;;
55210;SDS011;41082;52.822;6.666;2023-08-06T12:29:43;2.38;;;1.10;;
55210;SDS011;41082;52.822;6.666;2023-08-06T12:32:10;1.75;;;1.10;;
55210;SDS011;41082;52.822;6.666;2023-08-06T12:34:40;2.38;;;1.42;;
55210;SDS011;41082;52.822;6.666;2023-08-06T12:37:06;3.53;;;1.35;;
55210;SDS011;41082;52.822;6.666;2023-08-06T12:39:32;3.28;;;1.63;;
55210;SDS011;41082;52.822;6.666;2023-08-06T12:41:59;3.85;;;2.15;;
55210;SDS011;41082;52.822;6.666;2023-08-06T12:44:25;4.80;;;2.00;;
55210;SDS011;41082;52.822;6.666;2023-08-06T12:46:51;4.75;;;1.90;;
55210;SDS011;41082;52.822;6.666;2023-08-06T12:49:18;4.18;;;1.63;;
55210;SDS011;41082;52.822;6.666;2023-08-06T12:51:46;4.35;;;1.10;;
55210;SDS011;41082;52.822;6.666;2023-08-06T12:54:13;1.98;;;1.42;;
55210;SDS011;41082;52.822;6.666;2023-08-06T12:56:38;2.55;;;1.60;;
55210;SDS011;41082;52.822;6.666;2023-08-06T12:59:04;6.07;;;1.55;;
55210;SDS011;41082;52.822;6.666;2023-08-06T13:01:30;2.13;;;1.00;;
55210;SDS011;41082;52.822;6.666;2023-08-06T13:03:55;2.08;;;1.52;;
55210;SDS011;41082;52.822;6.666;2023-08-06T13:06:21;1.95;;;1.40;;
55210;SDS011;41082;52.822;6.666;2023-08-06T13:08:46;2.78;;;1.45;;
55210;SDS011;41082;52.822;6.666;2023-08-06T13:11:12;2.67;;;1.70;;
55210;SDS011;41082;52.822;6.666;2023-08-06T13:13:38;4.05;;;1.90;;
55210;SDS011;41082;52.822;6.666;2023-08-06T13:16:03;3.63;;;1.50;;
55210;SDS011;41082;52.822;6.666;2023-08-06T13:18:29;2.85;;;2.10;;
55210;SDS011;41082;52.822;6.666;2023-08-06T13:20:56;3.05;;;1.70;;
55210;SDS011;41082;52.822;6.666;2023-08-06T13:23:21;3.67;;;1.48;;
55210;SDS011;41082;52.822;6.666;2023-08-06T13:25:47;3.28;;;1.48;;
55210;SDS011;41082;52.822;6.666;2023-08-06T13:28:12;2.72;;;1.92;;
55210;SDS011;41082;52.822;6.666;2023-08-06T13:30:41;3.08;;;1.38;;
55210;SDS011;41082;52.822;6.666;2023-08-06T13:33:09;2.45;;;1.50;;
55210;SDS011;41082;52.822;6.666;2023-08-06T13:35:36;2.58;;;1.10;;
55210;SDS011;41082;52.822;6.666;2023-08-06T13:38:01;3.67;;;1.10;;
55210;SDS011;41082;52.822;6.666;2023-08-06T13:40:32;1.15;;;0.77;;
55210;SDS011;41082;52.822;6.666;2023-08-06T13:42:59;1.67;;;1.10;;
55210;SDS011;41082;52.822;6.666;2023-08-06T13:45:25;2.47;;;1.10;;
55210;SDS011;41082;52.822;6.666;2023-08-06T13:47:50;1.88;;;0.90;;
55210;SDS011;41082;52.822;6.666;2023-08-06T13:50:16;1.80;;;1.08;;
55210;SDS011;41082;52.822;6.666;2023-08-06T13:52:42;1.75;;;0.90;;
55210;SDS011;41082;52.822;6.666;2023-08-06T13:55:07;1.92;;;1.10;;
55210;SDS011;41082;52.822;6.666;2023-08-06T13:57:34;1.55;;;0.93;;
55210;SDS011;41082;52.822;6.666;2023-08-06T14:00:00;10.73;;;1.02;;
55210;SDS011;41082;52.822;6.666;2023-08-06T14:02:26;1.08;;;0.85;;
55210;SDS011;41082;52.822;6.666;2023-08-06T14:04:52;2.00;;;0.90;;
55210;SDS011;41082;52.822;6.666;2023-08-06T14:07:18;3.63;;;1.30;;
55210;SDS011;41082;52.822;6.666;2023-08-06T14:09:43;3.15;;;1.10;;
55210;SDS011;41082;52.822;6.666;2023-08-06T14:12:09;1.30;;;0.77;;
55210;SDS011;41082;52.822;6.666;2023-08-06T14:14:35;2.42;;;1.10;;
55210;SDS011;41082;52.822;6.666;2023-08-06T14:17:01;1.70;;;0.73;;
55210;SDS011;41082;52.822;6.666;2023-08-06T14:19:27;1.77;;;0.77;;
55210;SDS011;41082;52.822;6.666;2023-08-06T14:21:53;2.55;;;1.10;;
55210;SDS011;41082;52.822;6.666;2023-08-06T14:24:20;1.48;;;1.17;;
55210;SDS011;41082;52.822;6.666;2023-08-06T14:26:46;1.27;;;0.77;;
55210;SDS011;41082;52.822;6.666;2023-08-06T14:29:11;2.70;;;0.98;;
55210;SDS011;41082;52.822;6.666;2023-08-06T14:31:38;3.72;;;1.08;;
55210;SDS011;41082;52.822;6.666;2023-08-06T14:34:05;1.10;;;1.00;;
55210;SDS011;41082;52.822;6.666;2023-08-06T14:36:30;2.75;;;1.00;;
55210;SDS011;41082;52.822;6.666;2023-08-06T14:38:56;3.92;;;1.10;;
55210;SDS011;41082;52.822;6.666;2023-08-06T14:41:22;1.45;;;1.00;;
55210;SDS011;41082;52.822;6.666;2023-08-06T14:43:49;1.77;;;1.13;;
55210;SDS011;41082;52.822;6.666;2023-08-06T14:46:15;1.35;;;0.73;;
55210;SDS011;41082;52.822;6.666;2023-08-06T14:48:40;1.77;;;0.80;;